Time;durP1;ratioP1;P1;durP2;ratioP2;P2;SDS_P1;SDS_P2;PMS_P1;PMS_P2;Temp;Humidity;BMP_temperature;BMP_pressure;BME280_temperature;BME280_humidity;BME280_pressure;Samples;Min_cycle;Max_cycle;Signal;HPM_P1;HPM_P2
2023/05/06 00:01:41;;;;;;;1.10;1.10;;;15.00;99.90;;;;;;5071539;28;20390;-47
2023/05/06 00:04:07;;;;;;;4.22;1.08;;;14.90;99.90;;;;;;5071865;28;20441;-54
2023/05/06 00:06:32;;;;;;;1.85;1.50;;;14.90;99.90;;;;;;5071500;28;20053;-48
2023/05/06 00:08:58;;;;;;;2.97;1.20;;;14.90;99.90;;;;;;5071500;28;20016;-47
2023/05/06 00:11:25;;;;;;;2.60;1.10;;;14.80;99.90;;;;;;5071466;28;20020;-49
2023/05/06 00:13:50;;;;;;;2.28;1.15;;;14.80;99.90;;;;;;5053618;28;20530;-52
2023/05/06 00:16:16;;;;;;;2.40;1.45;;;14.80;99.90;;;;;;5071337;28;20057;-50
2023/05/06 00:18:41;;;;;;;2.13;1.23;;;14.70;99.90;;;;;;5071406;28;20036;-52
2023/05/06 00:21:07;;;;;;;1.98;1.50;;;14.70;99.90;;;;;;5071169;28;20392;-47
2023/05/06 00:23:32;;;;;;;3.13;1.27;;;14.60;99.90;;;;;;5071199;28;20068;-49
2023/05/06 00:25:58;;;;;;;3.72;1.40;;;14.50;99.90;;;;;;5071271;28;20111;-49
2023/05/06 00:28:23;;;;;;;2.20;1.35;;;14.50;99.90;;;;;;5071265;28;20099;-47
2023/05/06 00:30:49;;;;;;;3.03;1.27;;;14.60;99.90;;;;;;5071226;28;20075;-48
2023/05/06 00:33:14;;;;;;;4.90;1.90;;;14.60;99.90;;;;;;5071482;28;20032;-47
2023/05/06 00:35:40;;;;;;;2.63;1.60;;;14.60;99.90;;;;;;5071205;28;20411;-51
2023/05/06 00:38:08;;;;;;;2.00;1.38;;;14.60;99.90;;;;;;5071880;28;20027;-52
2023/05/06 00:40:34;;;;;;;3.47;1.40;;;14.60;99.90;;;;;;5071420;28;20013;-52
2023/05/06 00:42:59;;;;;;;5.97;1.98;;;14.60;99.90;;;;;;5071259;28;20024;-48
2023/05/06 00:45:25;;;;;;;3.03;1.40;;;14.60;99.90;;;;;;5073231;28;20031;-49
2023/05/06 00:47:51;;;;;;;1.73;1.50;;;14.60;99.90;;;;;;5075264;28;20480;-52
2023/05/06 00:50:17;;;;;;;2.88;1.58;;;14.60;99.90;;;;;;5074839;28;20040;-52
2023/05/06 00:52:44;;;;;;;2.47;1.42;;;14.60;99.90;;;;;;5075282;28;20103;-52
2023/05/06 00:55:09;;;;;;;4.07;1.77;;;14.60;99.90;;;;;;5074095;28;20024;-48
2023/05/06 00:57:35;;;;;;;4.30;1.48;;;14.50;99.90;;;;;;5075554;28;20565;-53
2023/05/06 01:00:00;;;;;;;2.03;1.40;;;14.60;99.90;;;;;;5075295;28;20442;-49
2023/05/06 01:02:26;;;;;;;3.88;1.65;;;14.50;99.90;;;;;;5075200;28;20020;-51
2023/05/06 01:04:54;;;;;;;3.97;1.65;;;14.40;99.90;;;;;;5075091;28;20078;-48
2023/05/06 01:07:23;;;;;;;1.65;1.45;;;14.30;99.90;;;;;;5074943;28;20013;-48
2023/05/06 01:10:00;;;;;;;4.72;1.67;;;14.20;99.90;;;;;;5057081;28;20021;-49
2023/05/06 01:12:34;;;;;;;3.40;1.60;;;14.10;99.90;;;;;;5056830;28;20044;-52
2023/05/06 01:15:24;;;;;;;1.40;1.30;;;14.10;99.90;;;;;;5074768;28;20025;-51
2023/05/06 01:17:53;;;;;;;1.60;1.50;;;14.10;99.90;;;;;;5074548;28;20514;-54
2023/05/06 01:20:20;;;;;;;4.38;1.73;;;14.10;99.90;;;;;;5074549;28;20056;-53
2023/05/06 01:22:47;;;;;;;3.65;1.10;;;14.10;99.90;;;;;;5074555;28;20025;-52
2023/05/06 01:25:20;;;;;;;2.33;1.40;;;14.10;99.90;;;;;;5074469;28;20058;-49
2023/05/06 01:27:46;;;;;;;1.95;1.52;;;13.90;99.90;;;;;;5074493;28;20024;-52
2023/05/06 01:30:14;;;;;;;5.05;1.52;;;13.80;99.90;;;;;;5074350;28;20031;-49
2023/05/06 01:32:59;;;;;;;4.30;1.60;;;13.80;99.90;;;;;;5074490;28;20071;-50
2023/05/06 01:35:50;;;;;;;5.53;1.20;;;13.60;99.90;;;;;;5074432;28;20352;-52
2023/05/06 01:38:36;;;;;;;2.10;1.67;;;13.50;99.90;;;;;;5067113;28;20123;-52
2023/05/06 01:41:02;;;;;;;1.88;1.77;;;13.50;99.90;;;;;;5074353;28;20033;-50
2023/05/06 01:43:33;;;;;;;4.53;2.15;;;13.50;99.90;;;;;;5074224;28;20027;-49
2023/05/06 01:46:00;;;;;;;3.22;1.50;;;13.50;99.90;;;;;;5073739;28;20028;-51
2023/05/06 01:48:28;;;;;;;1.70;1.60;;;13.50;99.90;;;;;;5074373;28;20032;-48
2023/05/06 01:50:55;;;;;;;4.47;2.38;;;13.60;99.90;;;;;;5073776;28;20024;-50
2023/05/06 01:53:21;;;;;;;3.97;1.85;;;13.50;99.90;;;;;;5074015;28;20107;-50
2023/05/06 01:55:47;;;;;;;2.05;1.85;;;13.60;99.90;;;;;;5074097;28;20104;-50
2023/05/06 01:58:13;;;;;;;7.40;1.58;;;13.60;99.90;;;;;;5073301;28;20032;-48
2023/05/06 02:00:39;;;;;;;1.95;1.60;;;13.60;99.90;;;;;;5073958;28;20395;-50
2023/05/06 02:03:04;;;;;;;3.75;1.58;;;13.50;99.90;;;;;;5073877;28;20035;-51
2023/05/06 02:05:30;;;;;;;1.55;1.40;;;13.50;99.90;;;;;;5073794;28;20020;-50
2023/05/06 02:07:55;;;;;;;1.63;1.52;;;13.50;99.90;;;;;;5073663;28;20021;-50
2023/05/06 02:10:21;;;;;;;4.35;1.50;;;13.50;99.90;;;;;;5074256;28;20274;-49
2023/05/06 02:12:47;;;;;;;1.98;1.63;;;13.40;99.90;;;;;;5056158;28;20044;-47
2023/05/06 02:15:12;;;;;;;2.30;1.60;;;13.40;99.90;;;;;;5073750;28;20032;-51
2023/05/06 02:17:38;;;;;;;6.28;2.10;;;13.40;99.90;;;;;;5073608;28;20118;-52
2023/05/06 02:20:04;;;;;;;2.78;2.00;;;13.40;99.90;;;;;;5073309;28;20112;-50
2023/05/06 02:22:30;;;;;;;3.67;2.25;;;13.40;99.90;;;;;;5073530;28;20488;-52
2023/05/06 02:24:56;;;;;;;1.67;1.58;;;13.40;99.90;;;;;;5073617;28;20036;-52
2023/05/06 02:27:21;;;;;;;2.80;1.88;;;13.40;99.90;;;;;;5055377;28;20098;-50
2023/05/06 02:29:47;;;;;;;1.75;1.65;;;13.40;99.90;;;;;;5073727;28;20024;-49
2023/05/06 02:32:13;;;;;;;3.60;1.70;;;13.30;99.90;;;;;;5073368;28;20480;-49
2023/05/06 02:34:38;;;;;;;5.53;1.75;;;13.30;99.90;;;;;;5073439;28;20066;-49
2023/05/06 02:37:04;;;;;;;1.80;1.50;;;13.20;99.90;;;;;;5073252;28;20271;-49
2023/05/06 02:39:29;;;;;;;2.90;2.00;;;13.20;99.90;;;;;;5073696;28;20024;-47
2023/05/06 02:41:54;;;;;;;2.17;1.90;;;13.20;99.90;;;;;;5073167;28;20032;-53
2023/05/06 02:44:20;;;;;;;1.70;1.60;;;13.10;99.90;;;;;;5073333;28;20029;-52
2023/05/06 02:46:45;;;;;;;4.00;2.03;;;13.10;99.90;;;;;;5074020;28;20024;-48
2023/05/06 02:49:11;;;;;;;1.95;1.83;;;13.00;99.90;;;;;;5072970;28;20043;-53
2023/05/06 02:51:36;;;;;;;4.38;2.55;;;13.00;99.90;;;;;;5073614;28;20484;-49
2023/05/06 02:54:02;;;;;;;4.38;1.80;;;13.00;99.90;;;;;;5055508;28;20027;-47
2023/05/06 02:56:28;;;;;;;2.00;1.83;;;13.00;99.90;;;;;;5073169;28;20108;-49
2023/05/06 02:58:53;;;;;;;6.82;1.83;;;13.00;99.90;;;;;;5072625;28;20031;-53
2023/05/06 03:01:19;;;;;;;3.47;1.90;;;13.00;99.90;;;;;;5054677;28;20025;-49
2023/05/06 03:03:44;;;;;;;6.03;2.10;;;13.00;99.90;;;;;;5072588;28;20360;-55
2023/05/06 03:06:10;;;;;;;5.25;1.98;;;13.00;99.90;;;;;;5072539;28;20511;-47
2023/05/06 03:08:35;;;;;;;3.00;2.28;;;13.00;99.90;;;;;;5072551;28;20067;-52
2023/05/06 03:11:01;;;;;;;5.20;2.58;;;13.00;99.90;;;;;;5072342;28;20086;-48
2023/05/06 03:13:26;;;;;;;4.00;2.80;;;13.00;99.90;;;;;;5072412;28;20029;-47
2023/05/06 03:15:53;;;;;;;7.57;2.75;;;12.90;99.90;;;;;;5072338;28;20020;-49
2023/05/06 03:18:18;;;;;;;4.72;2.63;;;12.90;99.90;;;;;;5072204;28;20025;-48
2023/05/06 03:20:46;;;;;;;6.90;4.10;;;12.90;99.90;;;;;;5072244;28;20017;-51
2023/05/06 03:23:12;;;;;;;3.10;2.58;;;12.90;99.90;;;;;;5072194;28;20028;-48
2023/05/06 03:25:37;;;;;;;5.35;2.28;;;13.00;99.90;;;;;;5072175;28;20071;-49
2023/05/06 03:28:03;;;;;;;3.28;2.78;;;13.00;99.90;;;;;;5071715;28;20025;-47
2023/05/06 03:30:29;;;;;;;5.68;3.03;;;13.00;99.90;;;;;;5071983;28;20025;-48
2023/05/06 03:32:57;;;;;;;4.57;3.67;;;13.00;99.90;;;;;;5072111;28;20024;-52
2023/05/06 03:35:23;;;;;;;6.00;3.15;;;13.00;99.90;;;;;;5071973;28;20471;-47
2023/05/06 03:37:48;;;;;;;3.22;2.92;;;13.00;99.90;;;;;;5071881;28;20066;-48
2023/05/06 03:40:14;;;;;;;2.90;2.70;;;12.90;99.90;;;;;;5071893;28;20028;-47
2023/05/06 03:42:39;;;;;;;4.05;3.05;;;12.80;99.90;;;;;;5071889;28;20523;-47
2023/05/06 03:45:06;;;;;;;4.15;2.10;;;12.70;99.90;;;;;;5071777;28;20031;-52
2023/05/06 03:47:31;;;;;;;4.15;2.40;;;12.70;99.90;;;;;;5071708;28;20415;-48
2023/05/06 03:49:57;;;;;;;3.00;2.53;;;12.60;99.90;;;;;;5071397;28;20028;-50
2023/05/06 03:52:22;;;;;;;4.30;2.83;;;12.70;99.90;;;;;;5071645;28;20025;-50
2023/05/06 03:54:48;;;;;;;4.55;3.50;;;12.70;99.90;;;;;;5071696;28;20499;-49
2023/05/06 03:57:14;;;;;;;4.03;2.70;;;12.70;99.90;;;;;;5071490;28;20383;-50
2023/05/06 03:59:39;;;;;;;2.90;2.60;;;12.60;99.90;;;;;;5071581;28;20024;-48
2023/05/06 04:02:05;;;;;;;5.88;2.65;;;12.60;99.90;;;;;;5071443;28;20040;-48
2023/05/06 04:04:30;;;;;;;3.35;2.58;;;12.60;99.90;;;;;;5071464;28;20024;-50
2023/05/06 04:06:56;;;;;;;2.70;2.22;;;12.60;99.90;;;;;;5071439;28;20391;-49
2023/05/06 04:09:21;;;;;;;4.82;3.20;;;12.70;99.90;;;;;;5071363;28;20020;-48
2023/05/06 04:11:47;;;;;;;4.07;3.25;;;12.70;99.90;;;;;;5071365;28;20025;-48
2023/05/06 04:14:12;;;;;;;8.15;3.95;;;12.80;99.90;;;;;;5071610;28;20438;-48
2023/05/06 04:16:38;;;;;;;5.82;3.72;;;12.80;99.90;;;;;;5071572;28;20100;-50
2023/05/06 04:19:03;;;;;;;3.53;3.22;;;12.80;99.90;;;;;;5053227;28;20479;-47
2023/05/06 04:21:30;;;;;;;3.35;3.05;;;12.80;99.90;;;;;;5071012;28;20032;-50
2023/05/06 04:23:55;;;;;;;4.45;3.97;;;12.80;99.90;;;;;;5071242;28;20031;-50
2023/05/06 04:26:21;;;;;;;7.30;4.20;;;12.80;99.90;;;;;;5071146;28;20028;-49
2023/05/06 04:28:46;;;;;;;4.68;4.13;;;12.90;99.90;;;;;;5071274;28;20020;-51
2023/05/06 04:31:13;;;;;;;6.32;4.18;;;12.90;99.90;;;;;;5071296;28;20074;-49
2023/05/06 04:33:39;;;;;;;8.75;4.22;;;12.90;99.90;;;;;;5071382;28;20092;-47
2023/05/06 04:36:05;;;;;;;9.85;3.88;;;12.80;99.90;;;;;;5071261;28;20020;-48
2023/05/06 04:38:31;;;;;;;4.30;3.55;;;12.90;99.90;;;;;;5071715;28;20519;-47
2023/05/06 04:40:57;;;;;;;7.75;3.92;;;13.00;99.90;;;;;;5071201;28;20102;-48
2023/05/06 04:43:26;;;;;;;5.28;4.13;;;13.10;99.90;;;;;;5071434;28;20447;-47
2023/05/06 04:45:53;;;;;;;4.53;3.20;;;13.20;99.90;;;;;;5071396;28;20368;-48
2023/05/06 04:48:20;;;;;;;4.25;3.10;;;13.60;99.90;;;;;;5071435;28;20381;-49
2023/05/06 04:50:46;;;;;;;4.80;3.33;;;14.40;99.90;;;;;;5071034;28;20101;-49
2023/05/06 04:53:12;;;;;;;8.63;3.53;;;15.30;99.90;;;;;;5071197;28;20104;-54
2023/05/06 04:55:38;;;;;;;5.05;3.08;;;16.10;99.90;;;;;;5053198;28;20043;-52
2023/05/06 04:58:03;;;;;;;3.42;3.08;;;16.70;99.90;;;;;;5070860;28;20029;-48
2023/05/06 05:00:29;;;;;;;6.38;2.80;;;17.30;99.90;;;;;;5070985;28;20028;-52
2023/05/06 05:02:54;;;;;;;4.85;2.97;;;17.90;99.90;;;;;;5070991;28;20391;-52
2023/05/06 05:05:20;;;;;;;3.85;2.70;;;18.40;99.90;;;;;;5070828;28;20148;-52
2023/05/06 05:07:45;;;;;;;3.92;3.05;;;19.00;99.90;;;;;;5070827;28;20039;-51
2023/05/06 05:10:11;;;;;;;4.97;2.95;;;19.50;99.90;;;;;;5070713;28;20032;-47
2023/05/06 05:12:37;;;;;;;5.95;3.00;;;19.90;99.90;;;;;;5070824;28;20112;-48
2023/05/06 05:15:02;;;;;;;3.80;3.25;;;20.30;99.90;;;;;;5070828;28;20497;-51
2023/05/06 05:17:29;;;;;;;3.17;2.33;;;20.60;99.90;;;;;;5070735;28;20021;-52
2023/05/06 05:19:54;;;;;;;3.00;2.50;;;21.40;99.90;;;;;;5070579;28;20068;-51
2023/05/06 05:22:20;;;;;;;3.22;2.67;;;22.00;99.50;;;;;;5070623;28;20059;-54
2023/05/06 05:24:45;;;;;;;2.45;2.30;;;21.80;99.40;;;;;;5070866;28;20445;-51
2023/05/06 05:27:11;;;;;;;2.20;2.00;;;22.30;98.50;;;;;;5070802;28;20028;-51
2023/05/06 05:29:36;;;;;;;4.43;2.47;;;22.50;97.60;;;;;;5070707;28;20598;-48
2023/05/06 05:32:02;;;;;;;3.58;2.30;;;22.40;97.60;;;;;;5071928;28;20016;-50
2023/05/06 05:34:29;;;;;;;4.07;2.33;;;22.30;97.90;;;;;;5074138;28;20032;-52
2023/05/06 05:36:56;;;;;;;2.25;1.95;;;22.10;98.70;;;;;;5074165;28;20100;-48
2023/05/06 05:39:21;;;;;;;4.70;1.83;;;22.10;98.10;;;;;;5074086;28;20070;-49
2023/05/06 05:41:47;;;;;;;3.15;2.40;;;22.30;98.30;;;;;;5074204;28;20036;-51
2023/05/06 05:44:13;;;;;;;2.13;2.00;;;22.30;97.90;;;;;;5074306;28;20024;-52
2023/05/06 05:46:39;;;;;;;2.97;1.90;;;22.20;98.70;;;;;;5074027;28;20415;-49
2023/05/06 05:49:05;;;;;;;6.60;2.22;;;22.70;98.00;;;;;;5074112;28;20051;-51
2023/05/06 05:51:30;;;;;;;2.75;2.05;;;23.70;97.10;;;;;;5073989;28;20020;-49
2023/05/06 05:53:56;;;;;;;1.60;1.50;;;24.20;95.80;;;;;;5073871;28;20028;-51
2023/05/06 05:56:21;;;;;;;3.42;1.92;;;24.80;94.50;;;;;;5074640;28;20029;-48
2023/05/06 05:58:47;;;;;;;4.22;1.90;;;25.10;93.70;;;;;;5073838;28;20020;-49
2023/05/06 06:01:13;;;;;;;2.88;1.83;;;25.00;94.00;;;;;;5073722;28;20035;-49
2023/05/06 06:03:39;;;;;;;5.18;1.67;;;25.10;93.90;;;;;;5073790;28;20028;-48
2023/05/06 06:06:04;;;;;;;3.47;1.60;;;25.50;93.30;;;;;;5073848;28;20427;-53
2023/05/06 06:08:31;;;;;;;1.85;1.48;;;25.90;92.70;;;;;;5055834;28;20027;-48
2023/05/06 06:10:56;;;;;;;1.40;1.30;;;25.90;92.70;;;;;;5073693;28;20013;-51
2023/05/06 06:13:22;;;;;;;2.97;1.50;;;26.00;91.90;;;;;;5074006;28;20031;-49
2023/05/06 06:15:48;;;;;;;3.08;1.13;;;26.60;91.50;;;;;;5073617;28;20024;-51
2023/05/06 06:18:13;;;;;;;1.25;0.80;;;27.20;90.30;;;;;;5073362;28;20361;-51
2023/05/06 06:20:39;;;;;;;2.92;1.35;;;27.60;89.90;;;;;;5073356;28;20031;-53
2023/05/06 06:23:04;;;;;;;2.17;1.10;;;28.20;87.40;;;;;;5073588;28;20460;-49
2023/05/06 06:25:30;;;;;;;3.25;1.30;;;28.50;85.80;;;;;;5073451;28;20020;-52
2023/05/06 06:27:56;;;;;;;1.45;0.77;;;28.10;85.20;;;;;;5073181;28;20048;-53
2023/05/06 06:30:21;;;;;;;1.75;0.90;;;27.60;86.00;;;;;;5073071;28;20020;-50
2023/05/06 06:32:49;;;;;;;1.08;0.98;;;27.60;86.40;;;;;;5073246;28;20025;-54
2023/05/06 06:35:14;;;;;;;1.30;0.80;;;27.70;85.70;;;;;;5073153;28;20040;-51
2023/05/06 06:37:40;;;;;;;0.80;0.80;;;28.10;84.00;;;;;;5073093;28;20029;-50
2023/05/06 06:40:06;;;;;;;1.05;0.93;;;28.30;83.30;;;;;;5073006;28;20063;-54
2023/05/06 06:42:31;;;;;;;0.90;0.80;;;28.50;82.40;;;;;;5072739;28;20080;-54
2023/05/06 06:44:57;;;;;;;11.68;0.90;;;28.50;82.20;;;;;;5072884;28;20059;-53
2023/05/06 06:47:22;;;;;;;1.92;1.00;;;28.60;82.20;;;;;;5073025;28;20021;-49
2023/05/06 06:49:48;;;;;;;1.30;1.20;;;28.70;81.90;;;;;;5072384;28;20033;-52
2023/05/06 06:52:13;;;;;;;3.70;1.15;;;29.00;80.40;;;;;;5072638;28;20028;-50
2023/05/06 06:54:39;;;;;;;5.28;0.98;;;28.40;81.80;;;;;;5072705;28;20573;-50
2023/05/06 06:57:05;;;;;;;2.47;1.02;;;28.60;81.60;;;;;;5072483;28;20035;-51
2023/05/06 06:59:31;;;;;;;5.28;1.55;;;29.00;80.50;;;;;;5072553;28;20063;-53
2023/05/06 07:01:56;;;;;;;1.20;1.00;;;29.10;80.00;;;;;;5072564;28;20113;-53
2023/05/06 07:04:24;;;;;;;2.67;1.00;;;29.40;79.40;;;;;;5068913;28;20078;-52
2023/05/06 07:06:50;;;;;;;0.80;0.80;;;29.10;80.10;;;;;;5082869;28;20099;-53
2023/05/06 07:09:15;;;;;;;2.42;0.93;;;29.40;78.90;;;;;;5092848;28;20107;-50
2023/05/06 07:11:41;;;;;;;2.08;1.08;;;29.50;78.20;;;;;;5074189;28;20040;-53
2023/05/06 07:14:07;;;;;;;1.05;0.80;;;29.60;77.80;;;;;;5066189;28;20051;-53
2023/05/06 07:16:33;;;;;;;2.15;1.33;;;29.40;78.60;;;;;;5072909;28;20032;-54
2023/05/06 07:18:59;;;;;;;2.88;1.10;;;29.50;77.80;;;;;;5056149;28;20059;-49
2023/05/06 07:21:25;;;;;;;1.60;1.00;;;29.40;78.30;;;;;;5071845;28;20093;-53
2023/05/06 07:23:51;;;;;;;1.08;0.63;;;29.50;78.90;;;;;;5064567;28;20445;-55
2023/05/06 07:26:17;;;;;;;2.92;0.80;;;29.60;78.90;;;;;;5092269;28;20024;-54
2023/05/06 07:28:42;;;;;;;1.63;0.68;;;30.10;76.50;;;;;;5081723;28;20024;-52
2023/05/06 07:31:08;;;;;;;0.60;0.60;;;30.00;76.50;;;;;;5064756;28;20412;-48
2023/05/06 07:33:33;;;;;;;1.98;0.85;;;30.30;76.30;;;;;;5056250;28;20139;-50
2023/05/06 07:35:59;;;;;;;1.13;0.73;;;30.70;75.50;;;;;;5066344;28;20024;-47
2023/05/06 07:38:24;;;;;;;1.08;0.88;;;31.00;74.50;;;;;;5092253;28;20031;-54
2023/05/06 07:40:50;;;;;;;3.40;0.68;;;31.20;73.80;;;;;;5064114;28;20089;-49
2023/05/06 07:43:16;;;;;;;6.03;0.88;;;30.90;73.80;;;;;;5070127;28;20035;-49
2023/05/06 07:45:42;;;;;;;0.98;0.95;;;30.60;74.70;;;;;;5071998;28;20395;-48
2023/05/06 07:48:07;;;;;;;3.35;1.45;;;30.20;75.30;;;;;;5071694;28;20017;-50
2023/05/06 07:50:33;;;;;;;1.77;0.98;;;29.70;76.30;;;;;;5071844;28;20036;-47
2023/05/06 07:52:59;;;;;;;0.65;0.65;;;29.70;76.20;;;;;;5066880;28;20041;-53
2023/05/06 07:55:24;;;;;;;1.00;1.00;;;29.50;77.10;;;;;;5081654;28;20059;-54
2023/05/06 07:57:50;;;;;;;2.47;0.55;;;29.60;76.80;;;;;;5091883;28;20024;-50
2023/05/06 08:00:17;;;;;;;1.63;0.75;;;29.90;75.80;;;;;;5074359;28;20032;-47
2023/05/06 08:02:43;;;;;;;1.27;1.10;;;30.20;74.90;;;;;;5071637;28;20024;-49
2023/05/06 08:05:09;;;;;;;1.25;0.90;;;30.00;75.40;;;;;;5071582;28;20020;-48
2023/05/06 08:07:36;;;;;;;2.38;1.40;;;29.90;75.10;;;;;;5071441;28;20021;-51
2023/05/06 08:10:02;;;;;;;2.50;1.00;;;29.90;75.00;;;;;;5071653;28;20028;-50
2023/05/06 08:12:27;;;;;;;1.48;1.10;;;30.30;73.60;;;;;;5069772;28;20017;-53
2023/05/06 08:14:54;;;;;;;2.88;1.10;;;30.70;73.20;;;;;;5070907;28;20032;-53
2023/05/06 08:17:19;;;;;;;1.45;1.08;;;30.80;72.30;;;;;;5064864;28;20013;-54
2023/05/06 08:19:45;;;;;;;0.98;0.90;;;30.30;74.10;;;;;;5056607;28;20559;-56
2023/05/06 08:22:11;;;;;;;0.80;0.80;;;30.00;73.50;;;;;;5051100;28;20025;-48
2023/05/06 08:24:37;;;;;;;2.28;0.80;;;29.70;73.40;;;;;;5062785;28;20484;-51
2023/05/06 08:27:03;;;;;;;3.60;1.10;;;29.70;74.80;;;;;;5053097;28;20107;-51
2023/05/06 08:29:28;;;;;;;2.40;1.00;;;29.30;73.00;;;;;;5070693;28;20035;-53
2023/05/06 08:31:54;;;;;;;0.95;0.55;;;29.30;73.20;;;;;;5061204;28;20025;-52
2023/05/06 08:34:20;;;;;;;1.73;0.70;;;29.10;72.30;;;;;;5054703;28;20057;-53
2023/05/06 08:36:47;;;;;;;3.45;0.88;;;28.80;73.60;;;;;;5074370;28;20036;-53
2023/05/06 08:39:13;;;;;;;3.10;1.10;;;28.60;74.70;;;;;;5080961;28;20111;-52
2023/05/06 08:41:39;;;;;;;3.90;0.98;;;28.30;75.40;;;;;;5089087;28;20020;-53
2023/05/06 08:44:06;;;;;;;3.08;0.80;;;27.90;77.90;;;;;;5090881;28;20035;-49
2023/05/06 08:46:32;;;;;;;0.90;0.90;;;27.50;76.70;;;;;;5090821;28;20017;-51
2023/05/06 08:48:58;;;;;;;2.30;1.13;;;27.00;76.40;;;;;;5090948;28;20028;-49
2023/05/06 08:51:28;;;;;;;1.30;1.00;;;26.50;77.00;;;;;;5091098;28;20035;-49
2023/05/06 08:53:54;;;;;;;3.13;1.35;;;25.80;79.70;;;;;;5071077;28;20020;-50
2023/05/06 08:56:27;;;;;;;1.17;1.02;;;25.20;81.00;;;;;;5070944;28;20078;-49
2023/05/06 08:58:54;;;;;;;0.90;0.90;;;25.00;81.90;;;;;;5070890;28;20040;-55
2023/05/06 09:01:20;;;;;;;1.02;0.90;;;24.90;83.80;;;;;;5070833;28;20520;-48
2023/05/06 09:03:46;;;;;;;2.60;1.27;;;24.70;84.30;;;;;;5070794;28;20075;-50
2023/05/06 09:06:12;;;;;;;1.67;1.10;;;24.80;85.20;;;;;;5072353;28;20644;-47
2023/05/06 09:08:37;;;;;;;3.20;1.08;;;24.80;84.30;;;;;;5074867;28;20078;-48
2023/05/06 09:11:20;;;;;;;1.77;1.10;;;24.70;84.70;;;;;;5074982;28;20028;-52
2023/05/06 09:13:45;;;;;;;1.25;0.75;;;24.60;85.30;;;;;;5074246;28;20024;-52
2023/05/06 09:16:28;;;;;;;0.98;0.90;;;24.70;86.10;;;;;;5074333;28;20495;-50
2023/05/06 09:18:54;;;;;;;4.28;1.20;;;24.80;86.30;;;;;;5074394;28;20024;-47
2023/05/06 09:21:20;;;;;;;1.42;1.20;;;24.80;85.10;;;;;;5074239;28;20070;-51
2023/05/06 09:23:45;;;;;;;1.38;0.88;;;24.70;84.90;;;;;;5074254;28;20071;-49
2023/05/06 09:26:11;;;;;;;1.20;1.10;;;24.60;85.60;;;;;;5073726;28;20064;-49
2023/05/06 09:28:36;;;;;;;4.18;1.20;;;24.60;86.20;;;;;;5074215;28;20092;-49
2023/05/06 09:31:02;;;;;;;4.05;1.42;;;24.50;86.80;;;;;;5074138;28;20025;-50
2023/05/06 09:33:28;;;;;;;1.90;0.93;;;24.20;88.10;;;;;;5074111;28;20023;-52
2023/05/06 09:35:53;;;;;;;2.58;1.13;;;24.30;87.50;;;;;;5074167;28;20025;-47
2023/05/06 09:38:20;;;;;;;3.30;2.78;;;24.20;88.40;;;;;;5056186;28;20074;-46
2023/05/06 09:40:46;;;;;;;38.10;29.60;;;24.30;87.90;;;;;;5073429;28;20013;-48
2023/05/06 09:43:12;;;;;;;6.45;5.40;;;24.50;86.80;;;;;;5054735;28;20031;-47
2023/05/06 09:45:38;;;;;;;1.67;0.82;;;24.40;86.30;;;;;;5073959;28;20040;-50
2023/05/06 09:48:05;;;;;;;1.30;0.80;;;24.30;85.40;;;;;;5073520;28;20024;-49
2023/05/06 09:50:31;;;;;;;2.03;0.90;;;24.20;88.30;;;;;;5074056;28;20115;-49
2023/05/06 09:52:59;;;;;;;8.88;1.15;;;24.10;87.80;;;;;;5073942;28;20063;-50
2023/05/06 09:55:26;;;;;;;1.27;0.80;;;24.20;88.00;;;;;;5074058;28;20104;-48
2023/05/06 09:57:51;;;;;;;0.95;0.80;;;24.00;88.30;;;;;;5073430;28;20036;-50
2023/05/06 10:00:17;;;;;;;2.55;1.00;;;24.10;88.10;;;;;;5055782;28;20369;-49
2023/05/06 10:02:44;;;;;;;0.55;0.55;;;24.10;88.60;;;;;;5073669;28;20062;-49
2023/05/06 10:05:11;;;;;;;1.85;0.60;;;24.00;85.80;;;;;;5073671;28;20024;-51
2023/05/06 10:07:38;;;;;;;0.95;0.70;;;23.90;85.30;;;;;;5073609;28;20017;-48
2023/05/06 10:10:07;;;;;;;1.15;0.57;;;23.60;85.10;;;;;;5073857;28;20341;-47
2023/05/06 10:12:34;;;;;;;1.98;0.60;;;23.20;85.90;;;;;;5073528;28;20016;-46
2023/05/06 10:15:00;;;;;;;0.50;0.50;;;22.90;88.00;;;;;;5073516;28;20129;-49
2023/05/06 10:17:27;;;;;;;2.75;0.60;;;22.70;89.10;;;;;;5072841;28;20104;-51
2023/05/06 10:19:57;;;;;;;2.22;0.60;;;22.60;87.90;;;;;;5073489;28;20630;-47
2023/05/06 10:22:59;;;;;;;0.80;0.80;;;22.60;88.30;;;;;;5073365;28;20035;-48
2023/05/06 10:25:43;;;;;;;0.55;0.50;;;22.80;88.50;;;;;;5055338;28;20413;-48
2023/05/06 10:28:10;;;;;;;0.55;0.55;;;22.70;89.20;;;;;;5073180;28;20067;-46
2023/05/06 10:30:37;;;;;;;12.77;1.70;;;22.90;87.50;;;;;;5073249;28;20031;-47
2023/05/06 10:33:08;;;;;;;0.70;0.65;;;23.00;88.10;;;;;;5073345;28;20384;-45
2023/05/06 10:35:42;;;;;;;0.50;0.50;;;23.10;88.20;;;;;;5073106;28;20035;-50
2023/05/06 10:38:13;;;;;;;17.80;11.75;;;23.00;87.60;;;;;;5072805;28;20082;-49
2023/05/06 10:40:39;;;;;;;29.73;20.13;;;23.10;88.50;;;;;;5073015;28;20024;-48
2023/05/06 10:43:29;;;;;;;41.15;23.75;;;23.20;89.90;;;;;;5072965;28;20472;-49
2023/05/06 10:46:00;;;;;;;1.70;1.55;;;23.10;90.10;;;;;;5072994;28;20104;-51
2023/05/06 10:48:26;;;;;;;0.57;0.57;;;23.10;88.30;;;;;;5072881;28;20017;-46
2023/05/06 10:51:15;;;;;;;1.05;0.68;;;23.00;88.00;;;;;;5072993;28;20066;-47
2023/05/06 10:54:04;;;;;;;0.73;0.60;;;22.90;90.20;;;;;;5072815;28;20120;-45
2023/05/06 10:56:31;;;;;;;0.50;0.50;;;22.90;89.20;;;;;;5072681;28;20404;-48
2023/05/06 10:59:06;;;;;;;0.68;0.60;;;22.90;88.60;;;;;;5072709;28;20032;-52
2023/05/06 11:01:32;;;;;;;1.50;0.70;;;22.70;90.00;;;;;;5073140;28;20016;-46
2023/05/06 11:04:08;;;;;;;1.50;0.63;;;22.70;89.80;;;;;;5072475;28;20029;-48
2023/05/06 11:06:43;;;;;;;0.85;0.80;;;22.70;90.30;;;;;;5072644;28;20081;-48
2023/05/06 11:09:17;;;;;;;0.60;0.60;;;22.50;89.10;;;;;;5073100;28;20016;-47
2023/05/06 11:11:51;;;;;;;0.85;0.57;;;22.50;90.90;;;;;;5072905;28;20055;-51
2023/05/06 11:14:45;;;;;;;1.73;1.20;;;22.50;91.50;;;;;;5072446;28;20392;-48
2023/05/06 11:17:32;;;;;;;2.50;0.52;;;22.50;90.80;;;;;;5059242;28;20064;-47
2023/05/06 11:20:17;;;;;;;1.10;0.90;;;22.60;89.70;;;;;;5072322;28;20016;-50
2023/05/06 11:22:42;;;;;;;8.25;1.52;;;22.60;91.20;;;;;;5072288;28;20102;-48
2023/05/06 11:25:08;;;;;;;0.77;0.68;;;22.70;91.00;;;;;;5072236;28;20080;-49
2023/05/06 11:27:35;;;;;;;0.93;0.68;;;22.60;90.50;;;;;;5072151;28;20119;-48
2023/05/06 11:30:00;;;;;;;4.47;1.20;;;22.50;90.90;;;;;;5071027;28;20095;-48
2023/05/06 11:32:28;;;;;;;1.20;0.73;;;22.50;91.00;;;;;;5071780;28;20111;-45
2023/05/06 11:34:55;;;;;;;2.90;1.70;;;22.50;90.50;;;;;;5072061;28;20075;-46
2023/05/06 11:37:25;;;;;;;1.25;0.70;;;22.50;90.90;;;;;;5071487;28;20510;-50
2023/05/06 11:39:50;;;;;;;2.67;1.00;;;22.40;90.50;;;;;;5072042;28;20082;-47
2023/05/06 11:42:23;;;;;;;1.65;0.70;;;22.40;90.90;;;;;;5071769;28;20036;-46
2023/05/06 11:44:49;;;;;;;2.85;0.88;;;22.50;89.10;;;;;;5071881;28;20026;-49
2023/05/06 11:47:14;;;;;;;1.45;0.68;;;22.50;90.10;;;;;;5072098;28;20103;-49
2023/05/06 11:49:41;;;;;;;0.47;0.47;;;22.50;90.80;;;;;;5104446;22;20078;-47
2023/05/06 11:52:09;;;;;;;0.95;0.65;;;22.60;90.90;;;;;;5073946;28;20027;-53
2023/05/06 11:54:39;;;;;;;0.70;0.70;;;22.70;90.70;;;;;;5074278;28;20024;-47
2023/05/06 11:57:05;;;;;;;1.70;0.68;;;22.70;90.30;;;;;;5092221;28;20024;-47
2023/05/06 11:59:36;;;;;;;1.55;0.70;;;22.70;89.00;;;;;;5081182;28;20492;-51
2023/05/06 12:02:03;;;;;;;0.50;0.50;;;22.60;88.20;;;;;;5071578;28;20027;-51
2023/05/06 12:04:46;;;;;;;0.88;0.77;;;22.50;89.70;;;;;;5071580;28;20028;-50
2023/05/06 12:07:13;;;;;;;0.50;0.50;;;22.40;87.80;;;;;;5071499;28;20108;-48
2023/05/06 12:09:50;;;;;;;6.45;3.08;;;22.30;90.10;;;;;;5071610;28;20400;-49
2023/05/06 12:12:21;;;;;;;2.35;1.42;;;22.40;90.30;;;;;;5071551;28;20038;-47
2023/05/06 12:14:48;;;;;;;1.40;0.98;;;22.50;89.70;;;;;;5071597;28;20028;-48
2023/05/06 12:17:15;;;;;;;0.95;0.80;;;22.60;89.60;;;;;;5053614;28;20031;-53
2023/05/06 12:19:40;;;;;;;1.23;1.05;;;22.60;90.40;;;;;;5071521;28;20020;-47
2023/05/06 12:22:19;;;;;;;1.73;0.80;;;22.60;90.20;;;;;;5053246;28;20113;-53
2023/05/06 12:24:46;;;;;;;0.85;0.73;;;22.50;89.30;;;;;;5071472;28;20036;-48
2023/05/06 12:27:11;;;;;;;4.53;0.90;;;22.50;89.90;;;;;;5053579;28;20050;-46
2023/05/06 12:29:37;;;;;;;27.00;12.98;;;22.50;89.10;;;;;;5071436;28;20021;-49
2023/05/06 12:32:10;;;;;;;2.90;0.98;;;22.60;90.30;;;;;;5071935;28;20090;-48
2023/05/06 12:34:37;;;;;;;1.35;0.80;;;22.70;90.50;;;;;;5071470;28;20024;-49
2023/05/06 12:37:04;;;;;;;2.75;1.20;;;22.70;90.70;;;;;;5070829;28;20032;-48
2023/05/06 12:39:37;;;;;;;1.35;0.80;;;22.70;90.30;;;;;;5071752;28;20032;-51
2023/05/06 12:42:02;;;;;;;2.50;0.73;;;22.70;88.50;;;;;;5074669;28;20035;-51
2023/05/06 12:44:31;;;;;;;0.82;0.82;;;22.70;89.10;;;;;;5057498;28;20025;-47
2023/05/06 12:46:57;;;;;;;1.10;1.00;;;22.70;88.60;;;;;;5075561;28;20078;-49